Time;durP1;ratioP1;P1;durP2;ratioP2;P2;SDS_P1;SDS_P2;PMS_P1;PMS_P2;Temp;Humidity;BMP_temperature;BMP_pressure;BME280_temperature;BME280_humidity;BME280_pressure;Samples;Min_cycle;Max_cycle;Signal;HPM_P1;HPM_P2
2021/12/19 00:01:01;;;;;;;25.77;13.53;;;4.20;99.90;;;4.54;69.22;99275.28;5029354;28;20233;-42
2021/12/19 00:03:57;;;;;;;23.02;11.52;;;4.20;99.90;;;4.54;68.93;99274.44;5026172;28;20054;-42
2021/12/19 00:09:13;;;;;;;21.40;10.23;;;4.10;99.90;;;4.56;69.03;99277.00;5027529;28;20045;-43
2021/12/19 00:11:40;;;;;;;19.20;10.90;;;4.20;99.90;;;4.54;69.01;99283.19;5027936;28;20052;-42
2021/12/19 00:14:08;;;;;;;28.97;13.57;;;4.20;99.90;;;4.54;69.45;99283.19;5027082;28;20045;-43
2021/12/19 00:16:36;;;;;;;28.10;12.43;;;4.20;99.90;;;4.57;69.53;99273.41;5026583;28;20316;-43
2021/12/19 00:19:04;;;;;;;25.57;11.30;;;4.20;99.90;;;4.54;69.03;99270.00;5028026;28;20061;-42
2021/12/19 00:21:32;;;;;;;22.10;11.43;;;4.20;99.90;;;4.50;68.66;99264.97;5027664;28;20047;-42
2021/12/19 00:24:00;;;;;;;23.60;12.20;;;4.20;99.90;;;4.50;68.86;99255.28;5027651;28;20057;-42
2021/12/19 00:26:29;;;;;;;22.87;11.40;;;4.10;99.90;;;4.48;68.84;99253.66;5027253;28;20045;-42
2021/12/19 00:28:58;;;;;;;26.23;12.53;;;4.10;99.90;;;4.48;69.05;99249.22;5027697;28;20362;-42
2021/12/19 00:31:27;;;;;;;21.90;11.90;;;4.10;99.90;;;4.49;69.05;99245.66;5027828;28;20046;-43
2021/12/19 00:33:55;;;;;;;21.60;10.57;;;4.10;99.90;;;4.50;69.14;99246.53;5026229;28;20046;-43
2021/12/19 00:36:24;;;;;;;27.00;11.27;;;4.20;99.90;;;4.51;69.00;99240.28;5026594;28;20275;-42
2021/12/19 00:38:52;;;;;;;20.63;10.07;;;4.20;99.90;;;4.53;69.33;99241.06;5027361;28;20079;-43
2021/12/19 00:41:20;;;;;;;21.57;10.47;;;4.20;99.90;;;4.54;69.49;99232.22;5026445;28;20240;-44
2021/12/19 00:43:55;;;;;;;24.07;11.23;;;4.30;99.90;;;4.51;68.67;99229.75;5027618;28;20225;-42
2021/12/19 00:46:26;;;;;;;17.57;9.57;;;4.20;99.90;;;4.48;68.66;99224.66;5025376;28;20217;-43
2021/12/19 00:48:56;;;;;;;22.37;9.77;;;4.10;99.90;;;4.48;69.44;99224.66;5026459;28;20061;-42
2021/12/19 00:51:25;;;;;;;17.43;8.27;;;4.10;99.90;;;4.49;69.14;99221.91;5027359;28;20063;-42
2021/12/19 00:53:54;;;;;;;20.50;9.43;;;4.10;99.90;;;4.51;68.70;99219.19;5025849;28;20053;-42
2021/12/19 00:56:23;;;;;;;19.67;9.43;;;4.20;99.90;;;4.53;69.36;99218.16;5025812;28;20056;-42
2021/12/19 00:58:51;;;;;;;23.33;10.93;;;4.20;99.90;;;4.52;68.83;99216.47;5025892;28;20053;-44
2021/12/19 01:01:19;;;;;;;19.73;9.73;;;4.20;99.90;;;4.52;68.65;99219.13;5027147;28;20057;-42
2021/12/19 01:03:48;;;;;;;20.73;10.87;;;4.20;99.90;;;4.52;68.89;99215.63;5026987;28;20301;-43
2021/12/19 01:06:18;;;;;;;18.00;9.10;;;4.20;99.90;;;4.52;68.77;99211.19;5027787;28;20049;-43
2021/12/19 01:08:47;;;;;;;20.60;9.90;;;4.10;99.90;;;4.50;69.36;99214.88;5026462;28;20050;-43
2021/12/19 01:11:16;;;;;;;17.93;8.47;;;4.20;99.90;;;4.50;69.56;99212.22;5027378;28;20045;-43
2021/12/19 01:13:44;;;;;;;20.63;8.50;;;4.20;99.90;;;4.50;69.42;99213.06;5026010;28;20045;-42
2021/12/19 01:16:13;;;;;;;20.67;9.80;;;4.20;99.90;;;4.46;69.26;99211.53;5025873;28;20054;-43
2021/12/19 01:18:40;;;;;;;24.10;9.93;;;4.00;99.90;;;4.43;68.60;99198.50;5027225;28;20378;-42
2021/12/19 01:21:08;;;;;;;24.90;11.20;;;4.00;99.90;;;4.40;69.27;99203.97;5027364;28;20063;-42
2021/12/19 01:23:37;;;;;;;21.57;10.07;;;4.00;99.90;;;4.38;69.17;99208.47;5026415;28;20076;-42
2021/12/19 01:26:05;;;;;;;21.03;11.00;;;3.90;99.90;;;4.34;69.70;99218.34;5026406;28;20061;-42
2021/12/19 01:28:33;;;;;;;21.37;10.97;;;3.90;99.90;;;4.31;69.63;99209.75;5026966;28;20059;-42
2021/12/19 01:31:00;;;;;;;22.13;9.83;;;3.80;99.90;;;4.27;69.02;99210.84;5027311;28;20057;-42
2021/12/19 01:33:28;;;;;;;19.10;10.13;;;3.80;99.90;;;4.24;68.78;99211.00;5026585;28;20048;-42
2021/12/19 01:35:56;;;;;;;22.00;10.50;;;3.80;99.90;;;4.22;68.77;99221.63;5026868;28;20050;-43
2021/12/19 01:38:25;;;;;;;20.83;10.57;;;3.80;99.90;;;4.21;69.22;99209.41;5026523;28;20049;-43
2021/12/19 01:40:53;;;;;;;23.60;10.23;;;3.80;99.90;;;4.26;69.52;99217.88;5026585;28;20267;-42
2021/12/19 01:43:24;;;;;;;24.83;11.40;;;3.80;99.90;;;4.29;69.41;99219.53;5026391;28;20045;-42
2021/12/19 01:45:53;;;;;;;20.90;10.23;;;3.90;99.90;;;4.26;69.02;99215.25;5026845;28;20057;-42
2021/12/19 01:48:23;;;;;;;22.80;11.17;;;3.90;99.90;;;4.24;69.40;99213.63;5025278;28;20045;-42
2021/12/19 01:50:51;;;;;;;19.40;9.87;;;3.90;99.90;;;4.22;69.53;99220.78;5027097;28;20041;-43
2021/12/19 01:53:19;;;;;;;24.47;11.37;;;3.80;99.90;;;4.21;69.69;99214.66;5027387;28;20053;-43
2021/12/19 01:55:50;;;;;;;18.37;9.33;;;3.80;99.90;;;4.20;69.25;99217.38;5023610;28;20239;-42
2021/12/19 01:58:18;;;;;;;22.00;9.53;;;3.80;99.90;;;4.20;69.90;99217.38;5025824;28;20045;-42
2021/12/19 02:00:55;;;;;;;15.40;8.97;;;3.80;99.90;;;4.16;69.46;99214.06;5026405;28;20373;-42
2021/12/19 02:03:24;;;;;;;19.00;9.27;;;3.70;99.90;;;4.14;69.78;99214.13;5026945;28;20057;-42
2021/12/19 02:05:53;;;;;;;20.23;10.07;;;3.70;99.90;;;4.16;69.27;99213.22;5025548;28;20061;-43
2021/12/19 02:08:21;;;;;;;22.33;10.33;;;3.80;99.90;;;4.17;69.16;99221.03;5025442;28;20053;-42
2021/12/19 02:10:49;;;;;;;20.43;10.30;;;3.80;99.90;;;4.14;68.97;99229.09;5026702;28;20041;-42
2021/12/19 02:13:17;;;;;;;20.87;10.93;;;3.70;99.90;;;4.09;69.65;99215.31;5025805;28;20048;-42
2021/12/19 02:15:47;;;;;;;32.30;10.37;;;3.70;99.90;;;4.04;69.21;99215.56;5025356;28;20067;-42
2021/12/19 02:18:21;;;;;;;21.37;10.00;;;3.60;99.90;;;4.03;69.60;99205.97;5026795;28;20045;-42
2021/12/19 02:20:56;;;;;;;20.23;9.37;;;3.70;99.90;;;4.02;69.92;99200.78;5026440;28;20057;-42
2021/12/19 02:23:27;;;;;;;18.43;10.27;;;3.60;99.90;;;4.07;70.20;99198.72;5026612;28;20249;-42
2021/12/19 02:25:56;;;;;;;18.53;9.00;;;3.70;99.90;;;4.02;69.45;99193.72;5025643;28;20045;-42
2021/12/19 02:28:24;;;;;;;23.33;9.43;;;3.70;99.90;;;3.98;70.13;99180.78;5028601;28;20061;-42
2021/12/19 02:30:53;;;;;;;19.37;10.80;;;3.60;99.90;;;3.88;69.19;99180.44;5028375;28;20050;-42
2021/12/19 02:33:24;;;;;;;22.83;8.80;;;3.50;99.90;;;3.88;69.93;99183.91;5029591;28;20063;-42
2021/12/19 02:36:05;;;;;;;16.50;8.07;;;3.50;99.90;;;3.89;69.72;99180.31;5028858;28;20049;-42
2021/12/19 02:39:19;;;;;;;21.47;9.77;;;3.50;99.90;;;3.85;70.04;99185.84;5029897;28;20045;-42
2021/12/19 02:50:13;;;;;;;19.50;8.47;;;3.40;99.90;;;3.78;70.58;99177.44;5032877;28;20059;-42
2021/12/19 02:52:41;;;;;;;15.95;7.82;;;3.40;99.90;;;3.78;70.09;99166.91;5028767;28;20057;-42
2021/12/19 02:55:10;;;;;;;19.60;9.07;;;3.40;99.90;;;3.82;70.61;99176.34;5029071;28;20063;-42
2021/12/19 02:57:39;;;;;;;20.30;8.57;;;3.50;99.90;;;3.77;69.93;99172.25;5028674;28;20386;-42
2021/12/19 03:00:15;;;;;;;21.97;8.80;;;3.40;99.90;;;3.77;70.54;99169.59;5028331;28;20068;-42
2021/12/19 03:02:42;;;;;;;18.33;8.80;;;3.40;99.90;;;3.79;70.19;99170.38;5028762;28;20060;-42
2021/12/19 03:05:10;;;;;;;14.83;8.83;;;3.40;99.90;;;3.83;69.60;99175.38;5027957;28;20057;-42
2021/12/19 03:07:42;;;;;;;18.43;8.00;;;3.50;99.90;;;3.83;70.20;99170.13;5028468;28;20323;-42
2021/12/19 03:18:19;;;;;;;18.37;7.93;;;3.40;99.90;;;3.82;70.29;99146.47;5027889;28;20059;-42
2021/12/19 03:20:47;;;;;;;21.43;8.33;;;3.40;99.90;;;3.81;69.97;99144.78;5027623;28;20049;-43
2021/12/19 03:23:15;;;;;;;18.03;8.90;;;3.40;99.90;;;3.81;70.29;99145.63;5031854;28;20296;-42
2021/12/19 03:25:43;;;;;;;17.97;8.73;;;3.40;99.90;;;3.82;70.00;99144.72;5028780;28;20049;-42
2021/12/19 03:28:13;;;;;;;16.47;8.20;;;3.40;99.90;;;3.83;70.02;99142.94;5028157;28;20348;-42
2021/12/19 03:30:44;;;;;;;20.33;8.27;;;3.40;99.90;;;3.83;70.25;99142.94;5029004;28;20049;-42
2021/12/19 03:33:13;;;;;;;17.97;8.17;;;3.40;99.90;;;3.84;70.00;99141.97;5027560;28;20177;-42
2021/12/19 03:35:42;;;;;;;20.37;8.07;;;3.50;99.90;;;3.84;70.63;99140.22;5028596;28;20147;-42
2021/12/19 03:38:14;;;;;;;24.00;9.20;;;3.50;99.90;;;3.87;70.14;99136.56;5028254;28;20463;-42
2021/12/19 03:40:51;;;;;;;20.53;8.27;;;3.50;99.90;;;3.88;70.11;99138.28;5029141;28;20053;-42
2021/12/19 03:43:24;;;;;;;22.20;7.83;;;3.50;99.90;;;3.87;70.23;99134.75;5028421;28;20049;-42
2021/12/19 03:45:51;;;;;;;15.87;7.77;;;3.50;99.90;;;3.85;70.43;99128.72;5029295;28;20042;-42
2021/12/19 03:48:20;;;;;;;16.53;7.80;;;3.50;99.90;;;3.86;70.07;99132.25;5028913;28;20059;-42
2021/12/19 03:50:49;;;;;;;20.07;8.50;;;3.40;99.90;;;3.82;70.09;99123.66;5028275;28;20366;-42
2021/12/19 03:53:21;;;;;;;15.37;8.13;;;3.40;99.90;;;3.81;70.31;99132.47;5028875;28;20352;-43
2021/12/19 03:55:50;;;;;;;27.63;8.93;;;3.40;99.90;;;3.81;70.30;99129.84;5027512;28;20065;-42
2021/12/19 03:58:19;;;;;;;18.57;8.50;;;3.40;99.90;;;3.80;69.71;99133.41;5029017;28;20053;-42
2021/12/19 04:00:49;;;;;;;16.80;7.53;;;3.40;99.90;;;3.82;70.61;99135.94;5027677;28;20387;-42
2021/12/19 04:03:19;;;;;;;19.07;7.30;;;3.40;99.90;;;3.84;70.44;99128.81;5026483;28;20054;-42
2021/12/19 04:05:50;;;;;;;17.40;8.57;;;3.50;99.90;;;3.84;70.13;99121.78;5028785;28;20609;-43
2021/12/19 04:08:20;;;;;;;16.43;7.53;;;3.50;99.90;;;3.83;70.08;99127.13;5027851;28;20049;-42
2021/12/19 04:10:50;;;;;;;15.03;7.00;;;3.40;99.90;;;3.81;70.45;99118.44;5026678;28;20060;-42
2021/12/19 04:13:20;;;;;;;14.53;7.37;;;3.40;99.90;;;3.81;70.35;99116.66;5027520;28;20344;-43
2021/12/19 04:15:49;;;;;;;12.37;6.80;;;3.40;99.90;;;3.83;70.40;99116.59;5027671;28;20045;-42
2021/12/19 04:18:17;;;;;;;15.10;9.07;;;3.40;99.90;;;3.84;70.46;99113.00;5028673;28;20064;-42
2021/12/19 04:20:46;;;;;;;15.93;7.00;;;3.50;99.90;;;3.85;70.28;99101.53;5028531;28;20055;-43
2021/12/19 04:23:14;;;;;;;15.03;7.80;;;3.50;99.90;;;3.81;69.94;99092.94;5025805;28;20056;-42
2021/12/19 04:25:42;;;;;;;13.50;6.73;;;3.40;99.90;;;3.79;70.24;99088.72;5027644;28;20382;-42
2021/12/19 04:28:10;;;;;;;15.97;7.47;;;3.40;99.90;;;3.81;69.80;99085.03;5028183;28;20059;-42
2021/12/19 04:30:38;;;;;;;13.53;6.57;;;3.50;99.90;;;3.81;70.15;99082.41;5028636;28;20065;-42
2021/12/19 04:33:10;;;;;;;13.73;6.80;;;3.40;99.90;;;3.80;70.41;99083.38;5027907;28;20240;-42
2021/12/19 04:35:44;;;;;;;16.00;6.60;;;3.40;99.90;;;3.79;70.36;99088.72;5027305;28;20505;-42
2021/12/19 04:55:02;;;;;;;12.63;6.28;;;3.40;99.90;;;3.77;69.90;99090.56;5023967;28;20052;-42
2021/12/19 04:57:41;;;;;;;13.17;6.20;;;3.30;99.90;;;3.74;70.34;99097.72;5025573;28;20173;-42
2021/12/19 05:00:14;;;;;;;11.90;5.87;;;3.40;99.90;;;3.73;70.15;99096.00;5028071;28;20068;-42
2021/12/19 05:05:42;;;;;;;11.93;6.33;;;3.30;99.90;;;3.72;69.90;99098.72;5026653;28;20064;-43
2021/12/19 05:16:30;;;;;;;11.50;6.20;;;3.50;99.90;;;3.80;70.04;99093.03;5026190;28;20056;-42
2021/12/19 05:19:04;;;;;;;12.13;5.47;;;3.40;99.90;;;3.80;69.74;99093.03;5026910;28;20050;-42
2021/12/19 05:21:35;;;;;;;13.80;6.13;;;3.50;99.90;;;3.78;70.18;99082.59;5026675;28;20067;-42
2021/12/19 05:24:20;;;;;;;11.23;6.63;;;3.40;99.90;;;3.78;70.30;99087.00;5026232;28;20455;-42
2021/12/19 05:26:48;;;;;;;15.23;5.40;;;3.50;99.90;;;3.79;69.86;99075.53;5026471;28;20057;-42
2021/12/19 05:29:17;;;;;;;12.73;6.00;;;3.50;99.90;;;3.78;69.87;99090.50;5026513;28;20353;-42
2021/12/19 05:31:45;;;;;;;11.93;6.10;;;3.50;99.90;;;3.78;69.59;99098.41;5026982;28;20049;-42
2021/12/19 05:34:13;;;;;;;11.87;5.67;;;3.40;99.90;;;3.75;69.71;99090.66;5026186;28;20072;-42
2021/12/19 05:45:18;;;;;;;10.30;5.20;;;3.30;99.90;;;3.68;69.95;99078.75;5025967;28;20058;-42
2021/12/19 05:47:49;;;;;;;10.20;5.17;;;3.30;99.90;;;3.68;70.40;99079.59;5026458;28;20044;-42
2021/12/19 05:50:21;;;;;;;10.63;5.70;;;3.40;99.90;;;3.68;70.20;99073.47;5026563;28;20057;-42
2021/12/19 05:52:50;;;;;;;14.40;6.57;;;3.30;99.90;;;3.68;69.90;99078.75;5026451;28;20272;-42
2021/12/19 05:55:20;;;;;;;12.20;7.00;;;3.30;99.90;;;3.66;69.94;99076.19;5026054;28;20548;-42
2021/12/19 05:57:48;;;;;;;10.97;5.63;;;3.30;99.90;;;3.68;70.03;99074.34;5026585;28;20443;-42
2021/12/19 06:00:19;;;;;;;13.33;6.50;;;3.30;99.90;;;3.70;69.72;99069.84;5027134;28;20483;-42
2021/12/19 06:02:47;;;;;;;14.23;6.10;;;3.30;99.90;;;3.71;70.30;99057.50;5028479;28;20063;-42
2021/12/19 06:05:15;;;;;;;12.50;6.53;;;3.30;99.90;;;3.74;69.87;99059.97;5031146;28;20064;-42
2021/12/19 06:07:43;;;;;;;15.03;6.07;;;3.40;99.90;;;3.73;70.16;99058.28;5029386;28;20056;-42
2021/12/19 06:10:11;;;;;;;13.23;5.60;;;3.40;99.90;;;3.71;70.23;99052.25;5030686;28;20271;-42
2021/12/19 06:12:39;;;;;;;10.80;5.50;;;3.40;99.90;;;3.69;69.90;99041.78;5029665;28;20059;-42
2021/12/19 06:15:09;;;;;;;11.77;5.07;;;3.40;99.90;;;3.71;69.72;99046.97;5029249;28;20045;-42
2021/12/19 06:17:42;;;;;;;14.00;6.60;;;3.40;99.90;;;3.69;69.77;99046.22;5028484;28;20057;-43
2021/12/19 06:20:10;;;;;;;12.83;6.23;;;3.30;99.90;;;3.65;70.33;99040.25;5030537;28;20251;-43
2021/12/19 06:22:39;;;;;;;12.27;6.40;;;3.30;99.90;;;3.64;70.19;99029.78;5029560;28;20375;-42
2021/12/19 06:25:08;;;;;;;11.10;6.50;;;3.30;99.90;;;3.63;70.01;99034.22;5030170;28;20255;-42
2021/12/19 06:27:37;;;;;;;12.50;6.47;;;3.20;99.90;;;3.64;69.87;99030.63;5030096;28;20366;-43
2021/12/19 06:30:07;;;;;;;11.03;5.70;;;3.30;99.90;;;3.64;69.78;99024.53;5031158;28;20037;-42
2021/12/19 06:32:34;;;;;;;10.77;5.33;;;3.30;99.90;;;3.66;70.06;99025.28;5029619;28;20041;-42
2021/12/19 06:35:07;;;;;;;12.17;6.47;;;3.30;99.90;;;3.68;70.49;99021.66;5028451;28;20057;-42
2021/12/19 06:37:38;;;;;;;9.97;5.20;;;3.30;99.90;;;3.65;70.23;99018.34;5029332;28;20077;-42
2021/12/19 06:40:09;;;;;;;14.00;6.07;;;3.30;99.90;;;3.61;70.37;99019.44;5028758;28;20053;-42
2021/12/19 06:42:37;;;;;;;9.27;4.70;;;3.30;99.90;;;3.51;70.35;99022.56;5029073;28;20068;-42
2021/12/19 06:45:05;;;;;;;8.80;4.10;;;3.10;99.90;;;3.37;70.68;99019.81;5029288;28;20045;-42
2021/12/19 06:47:33;;;;;;;8.07;4.23;;;3.00;99.90;;;3.29;70.73;99014.97;5028487;28;20064;-42
2021/12/19 06:50:02;;;;;;;5.97;3.17;;;2.90;99.90;;;3.21;70.64;99019.78;5030567;28;20282;-42
2021/12/19 06:52:30;;;;;;;6.53;3.33;;;2.80;99.90;;;3.18;70.84;99030.50;5028471;28;20056;-42
2021/12/19 06:54:57;;;;;;;6.10;3.40;;;2.80;99.90;;;3.17;70.73;99020.88;5029281;28;20045;-42
2021/12/19 06:57:25;;;;;;;6.23;3.13;;;2.80;99.90;;;3.16;70.95;99021.84;5029061;28;20343;-42
2021/12/19 06:59:53;;;;;;;4.63;2.80;;;2.80;99.90;;;3.08;70.85;99019.59;5030261;28;20367;-42
2021/12/19 07:02:21;;;;;;;4.03;2.37;;;2.70;99.90;;;2.95;71.32;99027.28;5028863;28;20049;-42
2021/12/19 07:04:49;;;;;;;4.07;2.40;;;2.60;99.90;;;2.91;71.70;99032.78;5028548;28;20049;-43
2021/12/19 07:07:19;;;;;;;5.70;2.63;;;2.60;99.90;;;2.88;71.32;99020.63;5028510;28;20053;-42
2021/12/19 07:09:47;;;;;;;5.73;3.00;;;2.60;99.90;;;2.95;71.37;99027.28;5028616;28;20052;-42
2021/12/19 07:12:15;;;;;;;5.57;2.90;;;2.60;99.90;;;3.01;71.18;99031.38;5028828;28;20052;-42
2021/12/19 07:14:43;;;;;;;4.10;2.40;;;2.70;99.90;;;3.05;71.37;99032.91;5027927;28;20351;-43
2021/12/19 07:17:12;;;;;;;5.70;2.37;;;2.80;99.90;;;3.09;71.62;99029.19;5029373;28;20344;-42
2021/12/19 07:19:39;;;;;;;3.53;2.20;;;2.80;99.90;;;3.17;71.23;99028.78;5029292;28;20358;-42
2021/12/19 07:22:07;;;;;;;5.07;2.93;;;2.90;99.90;;;3.15;70.77;99025.38;5028512;28;20053;-42
2021/12/19 07:24:35;;;;;;;6.30;2.77;;;2.90;99.90;;;3.20;71.14;99030.38;5028986;28;20049;-42
2021/12/19 07:27:03;;;;;;;4.73;3.30;;;2.90;99.90;;;3.26;71.00;99022.19;5029777;28;20051;-42
2021/12/19 07:29:31;;;;;;;4.13;2.10;;;3.00;99.90;;;3.30;70.97;99029.84;5029787;28;20050;-42
2021/12/19 07:31:59;;;;;;;4.03;2.10;;;3.00;99.90;;;3.30;70.79;99039.53;5028559;28;20061;-42
2021/12/19 07:34:33;;;;;;;4.10;2.37;;;3.00;99.90;;;3.29;71.16;99028.13;5029037;28;20065;-42
2021/12/19 07:37:01;;;;;;;4.97;2.65;;;3.00;99.90;;;3.31;70.79;99033.31;5029088;28;20053;-42
2021/12/19 07:42:04;;;;;;;4.00;2.20;;;3.00;99.90;;;3.37;71.04;99025.09;5027690;28;20397;-42
2021/12/19 07:44:33;;;;;;;3.73;2.07;;;3.10;99.90;;;3.39;71.01;99030.28;5028675;28;20061;-42
2021/12/19 07:47:02;;;;;;;3.70;2.23;;;3.10;99.90;;;3.41;70.91;99026.63;5027709;28;20053;-42
2021/12/19 07:49:30;;;;;;;3.70;2.40;;;3.10;99.90;;;3.43;71.15;99029.16;5028749;28;20053;-42
2021/12/19 07:51:58;;;;;;;3.90;2.43;;;3.10;99.90;;;3.46;70.40;99024.59;5027973;28;20061;-42
2021/12/19 07:54:26;;;;;;;3.37;1.93;;;3.10;99.90;;;3.47;71.27;99021.03;5029080;28;20053;-42
2021/12/19 07:56:54;;;;;;;4.00;2.20;;;3.10;99.90;;;3.51;71.08;99022.56;5026105;28;20063;-42
2021/12/19 07:59:22;;;;;;;4.57;2.53;;;3.20;99.90;;;3.54;71.25;99025.03;5027187;28;20079;-42
2021/12/19 08:01:50;;;;;;;3.27;2.10;;;3.20;99.90;;;3.55;71.06;99026.75;5027626;28;20060;-43
2021/12/19 08:04:18;;;;;;;6.33;2.83;;;3.20;99.90;;;3.56;70.66;99022.31;5027709;28;20414;-42
2021/12/19 08:06:45;;;;;;;4.77;2.73;;;3.20;99.90;;;3.58;71.20;99019.59;5027854;28;20064;-43
2021/12/19 08:09:23;;;;;;;7.97;3.27;;;3.20;99.90;;;3.61;70.80;99016.81;5026186;28;20252;-43
2021/12/19 08:11:51;;;;;;;7.77;3.20;;;3.30;99.90;;;3.63;70.59;99010.53;5026453;28;20087;-42
2021/12/19 08:14:19;;;;;;;4.73;2.67;;;3.30;99.90;;;3.67;71.04;99011.19;5027006;28;20046;-42
2021/12/19 08:16:47;;;;;;;5.73;2.73;;;3.40;99.90;;;3.68;70.77;99005.00;5025130;28;20057;-42
2021/12/19 08:19:15;;;;;;;5.97;2.70;;;3.40;99.90;;;3.70;70.20;98996.09;5026934;28;20045;-42
2021/12/19 08:21:43;;;;;;;5.53;3.93;;;3.40;99.90;;;3.74;70.83;99002.00;5022599;28;20064;-43
2021/12/19 08:24:13;;;;;;;6.00;3.30;;;3.40;99.90;;;3.76;70.48;98989.59;5016766;28;20071;-43
2021/12/19 08:26:45;;;;;;;8.13;3.87;;;3.50;99.90;;;3.75;70.59;98994.03;5014647;28;20053;-42
2021/12/19 08:29:14;;;;;;;5.63;3.07;;;3.50;99.90;;;3.77;70.64;98996.59;5008460;28;20054;-42
2021/12/19 08:31:43;;;;;;;5.70;3.30;;;3.50;99.90;;;3.77;70.92;99001.84;5005899;28;20479;-42
2021/12/19 08:34:15;;;;;;;6.97;4.03;;;3.50;99.90;;;3.78;70.46;99002.69;5006898;28;20064;-42
2021/12/19 08:36:43;;;;;;;6.43;3.57;;;3.40;99.90;;;3.79;70.83;99004.41;5006212;28;20050;-42
2021/12/19 08:39:12;;;;;;;6.43;3.27;;;3.40;99.90;;;3.80;70.44;98993.78;5008064;28;20053;-42
2021/12/19 08:41:40;;;;;;;4.50;2.87;;;3.40;99.90;;;3.80;70.36;98995.56;5007385;28;20390;-43
2021/12/19 08:44:08;;;;;;;4.63;3.00;;;3.40;99.90;;;3.83;71.19;98992.75;5006693;28;20045;-43
2021/12/19 08:46:37;;;;;;;4.67;3.10;;;3.50;99.90;;;3.86;70.41;98992.59;5007345;28;20060;-42
2021/12/19 08:49:05;;;;;;;6.00;3.37;;;3.50;99.90;;;3.85;70.27;98996.16;5007973;28;20381;-42
2021/12/19 08:51:34;;;;;;;4.83;2.40;;;3.50;99.90;;;3.85;70.71;98989.09;5006669;28;20058;-42
2021/12/19 08:54:02;;;;;;;5.90;2.87;;;3.50;99.90;;;3.87;70.79;98994.28;5006384;28;20728;-42
2021/12/19 08:56:30;;;;;;;6.33;3.00;;;3.50;99.90;;;3.87;70.44;98983.75;5006656;28;20237;-42
2021/12/19 08:58:59;;;;;;;4.87;2.60;;;3.50;99.90;;;3.87;70.52;98983.75;5006889;28;20352;-43
2021/12/19 09:01:28;;;;;;;4.03;2.40;;;3.50;99.90;;;3.88;70.57;98988.09;5036295;28;20241;-43
2021/12/19 09:03:55;;;;;;;4.37;2.30;;;3.60;99.90;;;3.91;70.60;98990.53;5035409;28;20053;-42
2021/12/19 09:06:24;;;;;;;8.47;4.93;;;3.60;99.90;;;3.92;70.48;98976.44;5034708;28;20075;-42
2021/12/19 09:08:52;;;;;;;5.70;3.33;;;3.60;99.90;;;3.92;70.13;98969.38;5033631;28;20393;-42
2021/12/19 09:11:21;;;;;;;5.67;2.80;;;3.60;99.90;;;3.93;70.54;98976.31;5036584;28;20347;-42
2021/12/19 09:13:49;;;;;;;5.63;2.90;;;3.60;99.90;;;3.92;70.23;98973.81;5032516;28;20041;-42
2021/12/19 09:16:17;;;;;;;5.03;3.37;;;3.60;99.90;;;3.96;70.41;98974.47;5034957;28;20060;-42
2021/12/19 09:19:04;;;;;;;4.67;2.97;;;3.70;99.90;;;3.97;70.22;98986.72;5036085;28;20063;-43
2021/12/19 09:21:32;;;;;;;5.33;3.03;;;3.70;99.90;;;3.91;70.50;98987.91;5025066;28;20055;-42
2021/12/19 09:24:00;;;;;;;6.23;4.73;;;3.60;99.90;;;3.81;70.65;98986.72;5024906;28;20067;-42
2021/12/19 09:26:29;;;;;;;6.80;3.73;;;3.50;99.90;;;3.83;70.97;98987.50;5024655;28;20049;-42
2021/12/19 09:28:56;;;;;;;4.83;2.93;;;3.50;99.90;;;3.86;70.04;98980.28;5025420;28;20057;-42
2021/12/19 09:31:25;;;;;;;5.83;2.80;;;3.50;99.90;;;3.86;70.41;98984.69;5026487;28;20050;-42
2021/12/19 09:33:53;;;;;;;3.93;2.40;;;3.50;99.90;;;3.90;70.62;98976.53;5025561;28;20057;-43
2021/12/19 09:36:21;;;;;;;7.07;6.03;;;3.60;99.90;;;3.94;70.20;98988.59;5026763;28;20049;-43
2021/12/19 09:38:49;;;;;;;4.83;2.83;;;3.70;99.90;;;3.98;70.69;98983.16;5026497;28;20058;-42
2021/12/19 09:41:32;;;;;;;5.07;2.43;;;3.70;99.90;;;3.99;70.79;98980.41;5026850;28;20258;-42
2021/12/19 09:44:03;;;;;;;4.63;2.70;;;3.70;99.90;;;3.98;70.65;98965.53;5026699;28;20050;-43
2021/12/19 09:46:37;;;;;;;4.53;2.77;;;3.70;99.90;;;4.01;70.26;98968.00;5026410;28;20068;-42
2021/12/19 09:49:11;;;;;;;3.35;2.60;;;3.70;99.90;;;3.97;70.97;98955.94;5026470;28;20060;-42
2021/12/19 09:51:40;;;;;;;4.53;2.67;;;3.70;99.90;;;3.93;70.10;98955.25;5025913;28;20055;-42
2021/12/19 09:54:11;;;;;;;4.53;2.80;;;3.70;99.90;;;3.97;70.47;98953.28;5026380;28;20051;-42
2021/12/19 09:56:40;;;;;;;6.10;3.30;;;3.70;99.90;;;4.00;70.80;98961.03;5026517;28;20247;-43
2021/12/19 09:59:14;;;;;;;6.23;3.90;;;3.70;99.90;;;4.01;70.44;98959.25;5028051;28;20065;-42
2021/12/19 10:01:42;;;;;;;9.17;5.07;;;3.70;99.90;;;4.01;69.97;98954.81;5025207;28;20058;-42
2021/12/19 10:04:43;;;;;;;6.20;3.40;;;3.70;99.90;;;3.91;69.77;98937.84;5025708;28;20061;-42
2021/12/19 10:07:28;;;;;;;8.37;5.17;;;3.70;99.90;;;3.82;70.33;98936.59;5025469;28;20053;-42
2021/12/19 10:10:03;;;;;;;5.87;3.40;;;3.50;99.90;;;3.85;70.21;98936.41;5027097;28;20558;-43
2021/12/19 10:15:31;;;;;;;6.03;4.93;;;3.40;99.90;;;3.80;70.63;98934.97;5025070;28;20062;-42
2021/12/19 10:18:11;;;;;;;6.57;4.50;;;3.50;99.90;;;3.69;70.39;98935.59;5024790;28;20336;-42
2021/12/19 10:20:46;;;;;;;4.83;3.00;;;3.40;99.90;;;3.73;70.84;98931.84;5025847;28;20162;-42
2021/12/19 10:23:37;;;;;;;4.23;3.10;;;3.40;99.90;;;3.66;70.17;98936.59;5026179;28;20042;-42
2021/12/19 10:26:10;;;;;;;4.63;3.27;;;3.40;99.90;;;3.69;70.59;98925.06;5024590;28;20378;-42
2021/12/19 10:28:58;;;;;;;5.88;3.10;;;3.40;99.90;;;3.57;70.94;98910.78;5025848;28;20328;-42
2021/12/19 10:31:29;;;;;;;3.13;2.10;;;3.30;99.90;;;3.44;71.01;98913.25;5025835;28;20052;-42
2021/12/19 10:33:57;;;;;;;4.93;2.90;;;3.10;99.90;;;3.51;70.86;98901.44;5025348;28;20275;-42
2021/12/19 10:36:28;;;;;;;4.40;2.77;;;3.20;99.90;;;3.63;70.96;98902.53;5025409;28;20057;-42
2021/12/19 10:39:19;;;;;;;6.80;3.07;;;3.40;99.90;;;3.65;70.85;98899.81;5026236;28;20367;-42
2021/12/19 10:41:59;;;;;;;5.10;3.30;;;3.40;99.90;;;3.69;70.81;98907.44;5026079;28;20255;-42
2021/12/19 10:47:27;;;;;;;5.33;3.50;;;3.30;99.90;;;3.51;71.17;98888.28;5026265;28;20431;-42
2021/12/19 10:49:55;;;;;;;5.20;3.13;;;3.30;99.90;;;3.60;70.60;98883.41;5029410;28;20053;-42
2021/12/19 10:52:39;;;;;;;5.57;4.20;;;3.30;99.90;;;3.63;70.68;98875.38;5029049;28;20052;-42
2021/12/19 10:55:12;;;;;;;7.70;4.43;;;3.40;99.90;;;3.70;71.33;98885.47;5029352;28;20252;-42
2021/12/19 10:57:42;;;;;;;5.53;3.80;;;3.50;99.90;;;3.68;71.04;98874.16;5027968;28;20049;-42
2021/12/19 11:00:27;;;;;;;7.60;3.70;;;3.50;99.90;;;3.71;70.69;98866.06;5029562;28;20047;-42
2021/12/19 11:02:55;;;;;;;6.40;4.00;;;3.50;99.90;;;3.83;71.04;98866.31;5028246;28;20251;-42
2021/12/19 11:05:40;;;;;;;6.33;3.30;;;3.60;99.90;;;3.84;70.98;98858.31;5026840;28;20060;-42
2021/12/19 11:08:10;;;;;;;6.77;3.80;;;3.70;99.90;;;3.86;70.79;98853.81;5027801;28;20067;-42
2021/12/19 11:10:41;;;;;;;6.77;3.93;;;3.70;99.90;;;3.92;71.19;98845.53;5030661;28;20065;-42
2021/12/19 11:13:14;;;;;;;7.07;4.67;;;3.70;99.90;;;3.87;70.79;98838.84;5026685;28;20365;-42
2021/12/19 11:15:42;;;;;;;6.07;3.55;;;3.70;99.90;;;3.73;70.74;98851.03;5027591;28;20045;-42
2021/12/19 11:18:10;;;;;;;7.77;6.37;;;3.40;99.90;;;3.64;70.83;98848.91;5029529;28;20227;-42
2021/12/19 11:20:38;;;;;;;7.07;5.03;;;3.30;99.90;;;3.54;71.00;98845.13;5029059;28;20047;-42
2021/12/19 11:23:06;;;;;;;8.03;5.37;;;3.20;99.90;;;3.52;70.60;98839.09;5027901;28;20061;-42
2021/12/19 11:25:36;;;;;;;10.27;6.33;;;3.20;99.90;;;3.49;70.56;98832.22;5027753;28;20060;-42
2021/12/19 11:28:05;;;;;;;8.83;5.53;;;3.20;99.90;;;3.48;71.19;98833.16;5026185;28;20267;-42
2021/12/19 11:30:33;;;;;;;7.37;5.17;;;3.20;99.90;;;3.44;71.17;98839.53;5028527;28;20060;-42
2021/12/19 11:33:26;;;;;;;8.10;4.80;;;3.20;99.90;;;3.43;70.70;98824.69;5028734;28;20257;-42
2021/12/19 11:35:57;;;;;;;8.93;5.70;;;3.20;99.90;;;3.50;71.27;98822.53;5028540;28;20049;-42
2021/12/19 11:38:25;;;;;;;12.23;6.17;;;3.30;99.90;;;3.38;71.13;98805.66;5031611;28;20076;-42
2021/12/19 11:40:53;;;;;;;10.63;6.70;;;3.10;99.90;;;3.33;71.30;98805.06;5040411;28;20212;-42
2021/12/19 11:43:21;;;;;;;9.73;6.97;;;3.00;99.90;;;3.32;71.66;98800.75;5037517;28;20079;-42
2021/12/19 11:45:59;;;;;;;8.57;5.87;;;3.00;99.90;;;3.38;71.68;98796.91;5039837;28;20049;-43